Map

Track Data

SID SEASON NUMBER BASIN SUBBASIN NAME ISO_TIME NATURE LAT LON WMO_WIND WMO_PRES WMO_AGENCY TRACK_TYPE DIST2LAND LANDFALL IFLAG USA_AGENCY USA_ATCF_ID USA_LAT USA_LON USA_RECORD USA_STATUS USA_WIND USA_PRES USA_SSHS USA_R34_NE USA_R34_SE USA_R34_SW USA_R34_NW USA_R50_NE USA_R50_SE USA_R50_SW USA_R50_NW USA_R64_NE USA_R64_SE USA_R64_SW USA_R64_NW USA_POCI USA_ROCI USA_RMW USA_EYE TOKYO_LAT TOKYO_LON TOKYO_GRADE TOKYO_WIND TOKYO_PRES TOKYO_R50_DIR TOKYO_R50_LONG TOKYO_R50_SHORT TOKYO_R30_DIR TOKYO_R30_LONG TOKYO_R30_SHORT TOKYO_LAND CMA_LAT CMA_LON CMA_CAT CMA_WIND CMA_PRES HKO_LAT HKO_LON HKO_CAT HKO_WIND HKO_PRES NEWDELHI_LAT NEWDELHI_LON NEWDELHI_GRADE NEWDELHI_WIND NEWDELHI_PRES NEWDELHI_CI NEWDELHI_DP NEWDELHI_POCI REUNION_LAT REUNION_LON REUNION_TYPE REUNION_WIND REUNION_PRES REUNION_TNUM REUNION_CI REUNION_RMW REUNION_R34_NE REUNION_R34_SE REUNION_R34_SW REUNION_R34_NW REUNION_R50_NE REUNION_R50_SE REUNION_R50_SW REUNION_R50_NW REUNION_R64_NE REUNION_R64_SE REUNION_R64_SW REUNION_R64_NW BOM_LAT BOM_LON BOM_TYPE BOM_WIND BOM_PRES BOM_TNUM BOM_CI BOM_RMW BOM_R34_NE BOM_R34_SE BOM_R34_SW BOM_R34_NW BOM_R50_NE BOM_R50_SE BOM_R50_SW BOM_R50_NW BOM_R64_NE BOM_R64_SE BOM_R64_SW BOM_R64_NW BOM_ROCI BOM_POCI BOM_EYE BOM_POS_METHOD BOM_PRES_METHOD NADI_LAT NADI_LON NADI_CAT NADI_WIND NADI_PRES WELLINGTON_LAT WELLINGTON_LON WELLINGTON_WIND WELLINGTON_PRES DS824_LAT DS824_LON DS824_STAGE DS824_WIND DS824_PRES TD9636_LAT TD9636_LON TD9636_STAGE TD9636_WIND TD9636_PRES TD9635_LAT TD9635_LON TD9635_WIND TD9635_PRES TD9635_ROCI NEUMANN_LAT NEUMANN_LON NEUMANN_CLASS NEUMANN_WIND NEUMANN_PRES MLC_LAT MLC_LON MLC_CLASS MLC_WIND MLC_PRES USA_GUST BOM_GUST BOM_GUST_PER REUNION_GUST REUNION_GUST_PER USA_SEAHGT USA_SEARAD_NE USA_SEARAD_SE USA_SEARAD_SW USA_SEARAD_NW STORM_SPEED STORM_DIR
1903011S11057 1903 5 SI MM NOT_NAMED 1903-01-11 06:00:00 NR -10.7000 56.9000 main 804 773 __________O___ -1 -10.7000 56.9000 7 8 214
1903011S11057 1903 5 SI MM NOT_NAMED 1903-01-11 09:00:00 NR -11.0156 56.6861 main 773 742 __________P___ -1 -11.0156 56.6861 7 8 215
1903011S11057 1903 5 SI MM NOT_NAMED 1903-01-11 12:00:00 NR -11.3248 56.4577 main 742 702 __________P___ -1 -11.3248 56.4577 7 8 218
1903011S11057 1903 5 SI MM NOT_NAMED 1903-01-11 15:00:00 NR -11.6217 56.2004 main 702 662 __________P___ -1 -11.6217 56.2004 7 8 224
1903011S11057 1903 5 SI MM NOT_NAMED 1903-01-11 18:00:00 NR -11.9000 55.9000 main 662 624 __________O___ -1 -11.9000 55.9000 7 8 230
1903011S11057 1903 5 SI MM NOT_NAMED 1903-01-11 21:00:00 NR -12.1565 55.5503 main 622 574 __________P___ -1 -12.1565 55.5503 7 9 235
1903011S11057 1903 5 SI MM NOT_NAMED 1903-01-12 00:00:00 NR -12.4004 55.1775 main 574 526 __________P___ -1 -12.4004 55.1775 7 9 236
1903011S11057 1903 5 SI MM NOT_NAMED 1903-01-12 03:00:00 NR -12.6440 54.8160 main 526 486 __________P___ -1 -12.6440 54.8160 7 8 233
1903011S11057 1903 5 SI MM NOT_NAMED 1903-01-12 06:00:00 NR -12.9000 54.5000 main 486 459 __________O___ -1 -12.9000 54.5000 7 7 224
1903011S11057 1903 5 SI MM NOT_NAMED 1903-01-12 09:00:00 NR -13.1731 54.2864 main 459 434 __________P___ -1 -13.1731 54.2864 7 7 213
1903011S11057 1903 5 SI MM NOT_NAMED 1903-01-12 12:00:00 NR -13.4621 54.1192 main 432 408 __________P___ -1 -13.4621 54.1192 7 7 207
1903011S11057 1903 5 SI MM NOT_NAMED 1903-01-12 15:00:00 NR -13.7700 53.9676 main 408 375 __________P___ -1 -13.7700 53.9676 7 7 206
1903011S11057 1903 5 SI MM NOT_NAMED 1903-01-12 18:00:00 NR -14.1000 53.8000 main 375 345 __________O___ -1 -14.1000 53.8000 7 8 212
1903011S11057 1903 5 SI MM NOT_NAMED 1903-01-12 21:00:00 NR -14.4252 53.5473 main 334 304 __________P___ -1 -14.4252 53.5473 7 8 217
1903011S11057 1903 5 SI MM NOT_NAMED 1903-01-13 00:00:00 NR -14.7753 53.2777 main 304 268 __________P___ -1 -14.7753 53.2777 7 9 215
1903011S11057 1903 5 SI MM NOT_NAMED 1903-01-13 03:00:00 NR -15.1627 53.0192 main 268 246 __________P___ -1 -15.1627 53.0192 7 10 209
1903011S11057 1903 5 SI MM NOT_NAMED 1903-01-13 06:00:00 NR -15.6000 52.8000 main 247 238 __________O___ -1 -15.6000 52.8000 7 10 201
1903011S11057 1903 5 SI MM NOT_NAMED 1903-01-13 09:00:00 NR -16.1280 52.6286 main 238 238 __________P___ -1 -16.1280 52.6286 7 11 195
1903011S11057 1903 5 SI MM NOT_NAMED 1903-01-13 12:00:00 NR -16.6998 52.5028 main 255 255 __________P___ -1 -16.6998 52.5028 7 12 190
1903011S11057 1903 5 SI MM NOT_NAMED 1903-01-13 15:00:00 NR -17.2718 52.4256 main 275 275 __________P___ -1 -17.2718 52.4256 7 11 185
1903011S11057 1903 5 SI MM NOT_NAMED 1903-01-13 18:00:00 NR -17.8000 52.4000 main 297 297 __________O___ -1 -17.8000 52.4000 7 10 181
1903011S11057 1903 5 SI MM NOT_NAMED 1903-01-13 21:00:00 NR -18.2455 52.4201 main 311 311 __________P___ -1 -18.2455 52.4201 7 8 174
1903011S11057 1903 5 SI MM NOT_NAMED 1903-01-14 00:00:00 NR -18.6399 52.4894 main 330 330 __________P___ -1 -18.6399 52.4894 7 8 168
1903011S11057 1903 5 SI MM NOT_NAMED 1903-01-14 03:00:00 NR -18.9893 52.5890 main 348 329 __________P___ -1 -18.9893 52.5890 7 7 163
1903011S11057 1903 5 SI MM NOT_NAMED 1903-01-14 06:00:00 NR -19.3000 52.7000 main 329 301 __________O___ -1 -19.3000 52.7000 7 6 162
1903011S11057 1903 5 SI MM NOT_NAMED 1903-01-14 09:00:00 NR -19.5940 52.7889 main 301 280 __________P___ -1 -19.5940 52.7889 7 6 163
1903011S11057 1903 5 SI MM NOT_NAMED 1903-01-14 12:00:00 NR -19.8524 52.8852 main 274 254 __________P___ -1 -19.8524 52.8852 7 5 159
1903011S11057 1903 5 SI MM NOT_NAMED 1903-01-14 15:00:00 NR -20.0846 52.9889 main 254 236 __________P___ -1 -20.0846 52.9889 7 5 156
1903011S11057 1903 5 SI MM NOT_NAMED 1903-01-14 18:00:00 NR -20.3000 53.1000 main 236 218 __________O___ -1 -20.3000 53.1000 7 5 153
1903011S11057 1903 5 SI MM NOT_NAMED 1903-01-14 21:00:00 NR -20.5066 53.2183 main 218 202 __________P___ -1 -20.5066 53.2183 7 5 151
1903011S11057 1903 5 SI MM NOT_NAMED 1903-01-15 00:00:00 NR -20.7076 53.3422 main 202 177 __________P___ -1 -20.7076 53.3422 7 5 150
1903011S11057 1903 5 SI MM NOT_NAMED 1903-01-15 03:00:00 NR -20.9048 53.4700 main 177 165 __________P___ -1 -20.9048 53.4700 7 5 149
1903011S11057 1903 5 SI MM NOT_NAMED 1903-01-15 06:00:00 NR -21.1000 53.6000 main 165 __________O___ -1 -21.1000 53.6000 7 5 149

About IBTrACS Database

This database is a web-friendly format of International Best Track Archive for Climate Stewardship (IBTrACS), a global best track data archive curated by NOAA dating back to 1842.

Updated: 2021-11-26